sensor_id;sensor_type;location;lat;lon;timestamp;pressure;altitude;pressure_sealevel;temperature;humidity
39891;BME280;25564;53.312;9.790;2023-02-26T00:02:10;100957.44;;;-1.26;97.75
39891;BME280;25564;53.312;9.790;2023-02-26T00:04:41;100971.25;;;-1.28;97.13
39891;BME280;25564;53.312;9.790;2023-02-26T00:07:13;100975.56;;;-1.29;97.16
39891;BME280;25564;53.312;9.790;2023-02-26T00:09:44;100978.09;;;-1.30;97.61
39891;BME280;25564;53.312;9.790;2023-02-26T00:12:15;100980.59;;;-1.34;97.39
39891;BME280;25564;53.312;9.790;2023-02-26T00:14:47;100983.94;;;-1.38;98.25
39891;BME280;25564;53.312;9.790;2023-02-26T00:19:57;100993.41;;;-1.40;97.50
39891;BME280;25564;53.312;9.790;2023-02-26T00:22:29;100998.63;;;-1.40;98.30
39891;BME280;25564;53.312;9.790;2023-02-26T00:25:00;100930.22;;;-1.85;97.80
39891;BME280;25564;53.312;9.790;2023-02-26T00:27:31;101003.72;;;-1.43;97.29
39891;BME280;25564;53.312;9.790;2023-02-26T00:30:06;100997.47;;;-1.48;97.27
39891;BME280;25564;53.312;9.790;2023-02-26T00:32:38;101006.09;;;-1.49;98.08
39891;BME280;25564;53.312;9.790;2023-02-26T00:35:13;100985.56;;;-1.65;98.12
39891;BME280;25564;53.312;9.790;2023-02-26T00:37:57;101007.75;;;-1.51;97.06
39891;BME280;25564;53.312;9.790;2023-02-26T00:40:42;100980.19;;;-1.70;97.52
39891;BME280;25564;53.312;9.790;2023-02-26T00:43:17;101023.22;;;-1.55;97.75
39891;BME280;25564;53.312;9.790;2023-02-26T00:46:09;101024.09;;;-1.55;98.19
39891;BME280;25564;53.312;9.790;2023-02-26T00:49:11;101025.03;;;-1.53;98.46
39891;BME280;25564;53.312;9.790;2023-02-26T00:51:50;101026.84;;;-1.50;97.57
39891;BME280;25564;53.312;9.790;2023-02-26T00:54:26;101028.47;;;-1.54;97.45
39891;BME280;25564;53.312;9.790;2023-02-26T00:56:58;101034.38;;;-1.58;98.46
39891;BME280;25564;53.312;9.790;2023-02-26T00:59:30;101012.97;;;-1.75;97.69
39891;BME280;25564;53.312;9.790;2023-02-26T01:02:01;101039.47;;;-1.61;98.03
39891;BME280;25564;53.312;9.790;2023-02-26T01:04:33;101012.97;;;-1.75;97.97
39891;BME280;25564;53.312;9.790;2023-02-26T01:07:04;101049.78;;;-1.64;98.08
39891;BME280;25564;53.312;9.790;2023-02-26T01:09:37;101050.31;;;-1.73;98.14
39891;BME280;25564;53.312;9.790;2023-02-26T01:12:10;101056.69;;;-1.65;97.18
39891;BME280;25564;53.312;9.790;2023-02-26T01:14:43;101064.63;;;-1.61;97.47
39891;BME280;25564;53.312;9.790;2023-02-26T01:17:22;101056.88;;;-1.60;97.79
39891;BME280;25564;53.312;9.790;2023-02-26T01:20:04;101054.16;;;-1.63;98.31
39891;BME280;25564;53.312;9.790;2023-02-26T01:22:53;101038.09;;;-1.75;97.76
39891;BME280;25564;53.312;9.790;2023-02-26T01:25:29;101044.22;;;-1.73;97.92
39891;BME280;25564;53.312;9.790;2023-02-26T01:28:05;101065.28;;;-1.67;98.40
39891;BME280;25564;53.312;9.790;2023-02-26T01:30:37;101039.53;;;-1.83;97.29
39891;BME280;25564;53.312;9.790;2023-02-26T01:33:16;101068.59;;;-1.71;98.38
39891;BME280;25564;53.312;9.790;2023-02-26T01:35:56;101065.03;;;-1.73;98.23
39891;BME280;25564;53.312;9.790;2023-02-26T01:39:02;101079.81;;;-1.72;97.46
39891;BME280;25564;53.312;9.790;2023-02-26T01:41:43;101078.00;;;-1.75;97.53
39891;BME280;25564;53.312;9.790;2023-02-26T01:44:25;101082.25;;;-1.77;97.72
39891;BME280;25564;53.312;9.790;2023-02-26T01:47:22;101079.53;;;-1.80;98.34
39891;BME280;25564;53.312;9.790;2023-02-26T01:49:57;101048.47;;;-1.99;97.90
39891;BME280;25564;53.312;9.790;2023-02-26T01:55:32;101071.69;;;-1.81;97.85
39891;BME280;25564;53.312;9.790;2023-02-26T01:58:03;101082.91;;;-1.82;98.08
39891;BME280;25564;53.312;9.790;2023-02-26T02:00:36;101089.06;;;-1.80;98.20
39891;BME280;25564;53.312;9.790;2023-02-26T02:03:08;101090.72;;;-1.82;97.41
39891;BME280;25564;53.312;9.790;2023-02-26T02:05:43;101087.03;;;-1.87;97.41
39891;BME280;25564;53.312;9.790;2023-02-26T02:08:16;101108.81;;;-1.85;98.00
39891;BME280;25564;53.312;9.790;2023-02-26T02:10:49;101103.59;;;-1.85;97.54
39891;BME280;25564;53.312;9.790;2023-02-26T02:31:24;101140.72;;;-2.12;97.28
39891;BME280;25564;53.312;9.790;2023-02-26T02:34:10;101146.75;;;-2.13;98.04
39891;BME280;25564;53.312;9.790;2023-02-26T02:36:48;101152.91;;;-2.11;97.87
39891;BME280;25564;53.312;9.790;2023-02-26T02:39:25;101169.44;;;-2.09;98.20
39891;BME280;25564;53.312;9.790;2023-02-26T02:42:32;101172.19;;;-2.04;97.57
39891;BME280;25564;53.312;9.790;2023-02-26T02:45:25;101166.22;;;-2.02;97.69
39891;BME280;25564;53.312;9.790;2023-02-26T02:48:11;101149.53;;;-2.08;98.14
39891;BME280;25564;53.312;9.790;2023-02-26T02:50:51;101167.13;;;-2.01;98.04
39891;BME280;25564;53.312;9.790;2023-02-26T02:53:34;101179.28;;;-2.00;97.61
39891;BME280;25564;53.312;9.790;2023-02-26T02:56:17;101176.63;;;-2.02;98.15
39891;BME280;25564;53.312;9.790;2023-02-26T02:59:00;101175.88;;;-1.99;98.50
39891;BME280;25564;53.312;9.790;2023-02-26T03:01:34;101168.91;;;-2.00;97.32
39891;BME280;25564;53.312;9.790;2023-02-26T03:04:08;101190.72;;;-1.97;97.68
39891;BME280;25564;53.312;9.790;2023-02-26T03:06:41;101169.25;;;-2.13;97.57
39891;BME280;25564;53.312;9.790;2023-02-26T03:09:13;101163.88;;;-2.18;97.90
39891;BME280;25564;53.312;9.790;2023-02-26T03:11:44;101201.09;;;-1.97;97.63
39891;BME280;25564;53.312;9.790;2023-02-26T03:14:16;101168.66;;;-2.06;98.12
39891;BME280;25564;53.312;9.790;2023-02-26T03:20:08;101194.97;;;-1.99;98.54
39891;BME280;25564;53.312;9.790;2023-02-26T03:25:23;101190.25;;;-2.09;97.75
39891;BME280;25564;53.312;9.790;2023-02-26T03:28:05;101206.88;;;-2.04;97.64
39891;BME280;25564;53.312;9.790;2023-02-26T03:30:51;101212.03;;;-2.05;98.66
39891;BME280;25564;53.312;9.790;2023-02-26T03:33:47;101165.16;;;-2.29;97.73
39891;BME280;25564;53.312;9.790;2023-02-26T03:36:28;101195.06;;;-2.18;97.86
39891;BME280;25564;53.312;9.790;2023-02-26T03:39:13;101219.88;;;-2.04;98.69
39891;BME280;25564;53.312;9.790;2023-02-26T03:41:52;101212.97;;;-2.03;98.06
39891;BME280;25564;53.312;9.790;2023-02-26T03:44:31;101226.81;;;-2.04;98.24
39891;BME280;25564;53.312;9.790;2023-02-26T03:47:07;101217.78;;;-2.14;98.40
39891;BME280;25564;53.312;9.790;2023-02-26T03:49:50;101230.16;;;-2.07;98.64
39891;BME280;25564;53.312;9.790;2023-02-26T03:52:26;101243.06;;;-2.10;98.05
39891;BME280;25564;53.312;9.790;2023-02-26T03:55:30;101241.22;;;-2.12;98.68
39891;BME280;25564;53.312;9.790;2023-02-26T03:58:03;101214.41;;;-2.32;98.18
39891;BME280;25564;53.312;9.790;2023-02-26T04:00:36;101259.22;;;-2.17;97.40
39891;BME280;25564;53.312;9.790;2023-02-26T04:04:21;101271.28;;;-2.19;98.28
39891;BME280;25564;53.312;9.790;2023-02-26T04:06:33;101268.47;;;-2.23;98.29
39891;BME280;25564;53.312;9.790;2023-02-26T04:09:05;101242.66;;;-2.40;98.18
39891;BME280;25564;53.312;9.790;2023-02-26T04:11:37;101267.59;;;-2.24;97.70
39891;BME280;25564;53.312;9.790;2023-02-26T04:14:09;101270.25;;;-2.22;97.86
39891;BME280;25564;53.312;9.790;2023-02-26T04:16:42;101255.03;;;-2.34;98.17
39891;BME280;25564;53.312;9.790;2023-02-26T04:19:14;101274.69;;;-2.20;97.55
39891;BME280;25564;53.312;9.790;2023-02-26T04:21:45;101287.81;;;-2.17;98.23
39891;BME280;25564;53.312;9.790;2023-02-26T04:24:17;101266.56;;;-2.27;98.33
39891;BME280;25564;53.312;9.790;2023-02-26T04:26:48;101292.06;;;-2.19;98.77
39891;BME280;25564;53.312;9.790;2023-02-26T04:29:19;101300.69;;;-2.20;98.54
39891;BME280;25564;53.312;9.790;2023-02-26T04:31:51;101297.28;;;-2.19;98.57
39891;BME280;25564;53.312;9.790;2023-02-26T04:34:22;101305.13;;;-2.17;98.14
39891;BME280;25564;53.312;9.790;2023-02-26T04:36:54;101303.28;;;-2.20;98.55
39891;BME280;25564;53.312;9.790;2023-02-26T04:39:25;101304.13;;;-2.21;97.67
39891;BME280;25564;53.312;9.790;2023-02-26T04:41:56;101274.66;;;-2.41;97.96
39891;BME280;25564;53.312;9.790;2023-02-26T04:44:28;101316.03;;;-2.26;97.84
39891;BME280;25564;53.312;9.790;2023-02-26T04:46:59;101268.81;;;-2.56;98.38
39891;BME280;25564;53.312;9.790;2023-02-26T04:49:30;101324.50;;;-2.30;98.31
39891;BME280;25564;53.312;9.790;2023-02-26T04:52:02;101316.50;;;-2.35;98.24
39891;BME280;25564;53.312;9.790;2023-02-26T04:54:33;101322.59;;;-2.34;97.98
39891;BME280;25564;53.312;9.790;2023-02-26T04:57:05;101329.31;;;-2.39;98.02
39891;BME280;25564;53.312;9.790;2023-02-26T04:59:36;101303.31;;;-2.58;97.08
39891;BME280;25564;53.312;9.790;2023-02-26T05:02:08;101328.16;;;-2.46;97.19
39891;BME280;25564;53.312;9.790;2023-02-26T05:04:40;101312.63;;;-2.64;97.93
39891;BME280;25564;53.312;9.790;2023-02-26T05:07:11;101326.84;;;-2.55;97.15
39891;BME280;25564;53.312;9.790;2023-02-26T05:09:42;101339.00;;;-2.54;97.51
39891;BME280;25564;53.312;9.790;2023-02-26T05:12:14;101306.06;;;-2.75;97.44
39891;BME280;25564;53.312;9.790;2023-02-26T05:14:46;101344.22;;;-2.54;97.56
39891;BME280;25564;53.312;9.790;2023-02-26T05:17:17;101345.84;;;-2.56;96.89
39891;BME280;25564;53.312;9.790;2023-02-26T05:19:48;101354.38;;;-2.59;97.96
39891;BME280;25564;53.312;9.790;2023-02-26T05:22:20;101351.59;;;-2.64;97.93
39891;BME280;25564;53.312;9.790;2023-02-26T05:24:51;101346.03;;;-2.71;96.83
39891;BME280;25564;53.312;9.790;2023-02-26T05:27:22;101357.47;;;-2.68;97.64
39891;BME280;25564;53.312;9.790;2023-02-26T05:29:54;101366.97;;;-2.68;97.27
39891;BME280;25564;53.312;9.790;2023-02-26T05:32:25;101363.53;;;-2.67;97.62
39891;BME280;25564;53.312;9.790;2023-02-26T05:34:56;101365.31;;;-2.66;97.47
39891;BME280;25564;53.312;9.790;2023-02-26T05:37:28;101344.78;;;-2.79;97.30
39891;BME280;25564;53.312;9.790;2023-02-26T05:39:59;101359.50;;;-2.80;97.71
39891;BME280;25564;53.312;9.790;2023-02-26T05:42:30;101385.34;;;-2.64;97.05
39891;BME280;25564;53.312;9.790;2023-02-26T05:45:03;101386.31;;;-2.61;97.64
39891;BME280;25564;53.312;9.790;2023-02-26T05:47:36;101385.34;;;-2.64;97.70
39891;BME280;25564;53.312;9.790;2023-02-26T05:50:08;101385.28;;;-2.65;97.81
39891;BME280;25564;53.312;9.790;2023-02-26T05:52:39;101393.97;;;-2.65;97.40
39891;BME280;25564;53.312;9.790;2023-02-26T05:55:11;101356.59;;;-2.86;97.70
39891;BME280;25564;53.312;9.790;2023-02-26T05:57:42;101366.41;;;-2.80;97.38
39891;BME280;25564;53.312;9.790;2023-02-26T06:00:14;101399.09;;;-2.66;97.64
39891;BME280;25564;53.312;9.790;2023-02-26T06:02:45;101379.44;;;-2.79;97.26
39891;BME280;25564;53.312;9.790;2023-02-26T06:05:17;101406.00;;;-2.67;97.71
39891;BME280;25564;53.312;9.790;2023-02-26T06:07:48;101410.59;;;-2.61;97.75
39891;BME280;25564;53.312;9.790;2023-02-26T06:10:19;101419.41;;;-2.57;98.12
39891;BME280;25564;53.312;9.790;2023-02-26T06:12:51;101423.94;;;-2.53;97.22
39891;BME280;25564;53.312;9.790;2023-02-26T06:15:23;101402.66;;;-2.64;97.49
39891;BME280;25564;53.312;9.790;2023-02-26T06:17:54;101424.81;;;-2.53;98.04
39891;BME280;25564;53.312;9.790;2023-02-26T06:20:25;101432.63;;;-2.53;97.63
39891;BME280;25564;53.312;9.790;2023-02-26T06:22:57;101430.91;;;-2.52;97.94
39891;BME280;25564;53.312;9.790;2023-02-26T06:25:28;101437.88;;;-2.51;96.99
39891;BME280;25564;53.312;9.790;2023-02-26T06:27:59;101438.78;;;-2.51;97.43
39891;BME280;25564;53.312;9.790;2023-02-26T06:30:30;101419.06;;;-2.65;96.71
39891;BME280;25564;53.312;9.790;2023-02-26T06:33:02;101455.25;;;-2.50;97.11
39891;BME280;25564;53.312;9.790;2023-02-26T06:35:33;101452.59;;;-2.52;97.40
39891;BME280;25564;53.312;9.790;2023-02-26T06:38:05;101460.44;;;-2.50;97.08
39891;BME280;25564;53.312;9.790;2023-02-26T06:40:36;101459.56;;;-2.51;97.24
39891;BME280;25564;53.312;9.790;2023-02-26T06:43:08;101462.22;;;-2.49;96.94
39891;BME280;25564;53.312;9.790;2023-02-26T06:45:39;101465.78;;;-2.47;97.18
39891;BME280;25564;53.312;9.790;2023-02-26T06:48:10;101471.13;;;-2.44;97.35
39891;BME280;25564;53.312;9.790;2023-02-26T06:50:42;101474.84;;;-2.39;97.70
39891;BME280;25564;53.312;9.790;2023-02-26T06:53:13;101491.59;;;-2.33;97.87
39891;BME280;25564;53.312;9.790;2023-02-26T06:55:46;101486.69;;;-2.26;98.00
39891;BME280;25564;53.312;9.790;2023-02-26T06:58:20;101495.88;;;-2.15;97.76
39891;BME280;25564;53.312;9.790;2023-02-26T07:00:51;101505.78;;;-2.07;98.31
39891;BME280;25564;53.312;9.790;2023-02-26T07:03:23;101505.25;;;-2.00;98.47
39891;BME280;25564;53.312;9.790;2023-02-26T07:05:54;101500.31;;;-1.93;98.48
39891;BME280;25564;53.312;9.790;2023-02-26T07:08:25;101491.47;;;-1.97;98.63
39891;BME280;25564;53.312;9.790;2023-02-26T07:10:57;101510.53;;;-1.79;98.17
39891;BME280;25564;53.312;9.790;2023-02-26T07:13:28;101487.72;;;-1.84;98.46
39891;BME280;25564;53.312;9.790;2023-02-26T07:15:59;101496.63;;;-1.79;98.34
39891;BME280;25564;53.312;9.790;2023-02-26T07:18:30;101520.09;;;-1.58;98.42
39891;BME280;25564;53.312;9.790;2023-02-26T07:21:03;101530.22;;;-1.45;98.09
39891;BME280;25564;53.312;9.790;2023-02-26T07:23:34;101528.84;;;-1.37;98.76
39891;BME280;25564;53.312;9.790;2023-02-26T07:26:06;101530.91;;;-1.30;98.07
39891;BME280;25564;53.312;9.790;2023-02-26T07:28:39;101531.44;;;-1.18;97.63
39891;BME280;25564;53.312;9.790;2023-02-26T07:31:10;101520.50;;;-1.09;98.90
39891;BME280;25564;53.312;9.790;2023-02-26T07:33:41;101505.72;;;-1.10;98.42
39891;BME280;25564;53.312;9.790;2023-02-26T07:36:13;101508.59;;;-1.03;97.72
39891;BME280;25564;53.312;9.790;2023-02-26T07:38:45;101525.56;;;-0.91;98.61
39891;BME280;25564;53.312;9.790;2023-02-26T07:41:16;101524.19;;;-0.83;98.52
39891;BME280;25564;53.312;9.790;2023-02-26T07:43:48;101548.44;;;-0.63;97.85
39891;BME280;25564;53.312;9.790;2023-02-26T07:46:19;101548.81;;;-0.54;98.65
39891;BME280;25564;53.312;9.790;2023-02-26T07:48:50;101553.59;;;-0.44;98.10
39891;BME280;25564;53.312;9.790;2023-02-26T07:51:22;101556.56;;;-0.35;98.54
39891;BME280;25564;53.312;9.790;2023-02-26T07:53:53;101545.19;;;-0.37;98.32
39891;BME280;25564;53.312;9.790;2023-02-26T07:56:25;101534.94;;;-0.32;98.50
39891;BME280;25564;53.312;9.790;2023-02-26T07:58:56;101565.53;;;-0.06;97.74
39891;BME280;25564;53.312;9.790;2023-02-26T08:01:27;101558.91;;;0.04;98.00
39891;BME280;25564;53.312;9.790;2023-02-26T08:03:59;101570.06;;;0.22;98.51
39891;BME280;25564;53.312;9.790;2023-02-26T08:06:31;101571.13;;;0.27;98.23
39891;BME280;25564;53.312;9.790;2023-02-26T08:09:02;101572.19;;;0.32;97.94
39891;BME280;25564;53.312;9.790;2023-02-26T08:11:34;101571.47;;;0.36;97.84
39891;BME280;25564;53.312;9.790;2023-02-26T08:14:10;101576.09;;;0.43;98.08
39891;BME280;25564;53.312;9.790;2023-02-26T08:16:42;101580.69;;;0.50;97.97
39891;BME280;25564;53.312;9.790;2023-02-26T08:19:13;101592.31;;;0.58;97.93
39891;BME280;25564;53.312;9.790;2023-02-26T08:21:45;101595.22;;;0.66;97.92
39891;BME280;25564;53.312;9.790;2023-02-26T08:24:16;101599.03;;;0.76;97.82
39891;BME280;25564;53.312;9.790;2023-02-26T08:26:48;101587.66;;;0.74;98.04
39891;BME280;25564;53.312;9.790;2023-02-26T08:29:19;101597.81;;;0.90;97.63
39891;BME280;25564;53.312;9.790;2023-02-26T08:31:51;101598.09;;;0.97;97.99
39891;BME280;25564;53.312;9.790;2023-02-26T08:34:22;101604.31;;;1.01;97.47
39891;BME280;25564;53.312;9.790;2023-02-26T08:36:54;101607.06;;;1.06;98.29
39891;BME280;25564;53.312;9.790;2023-02-26T08:39:25;101558.19;;;0.78;97.53
39891;BME280;25564;53.312;9.790;2023-02-26T08:41:57;101614.44;;;1.17;97.72
39891;BME280;25564;53.312;9.790;2023-02-26T08:44:28;101602.22;;;1.16;97.52
39891;BME280;25564;53.312;9.790;2023-02-26T08:46:59;101603.53;;;1.29;97.47
39891;BME280;25564;53.312;9.790;2023-02-26T08:49:31;101620.94;;;1.54;97.12
39891;BME280;25564;53.312;9.790;2023-02-26T08:52:02;101609.53;;;1.52;97.26
39891;BME280;25564;53.312;9.790;2023-02-26T08:54:34;101616.63;;;1.56;97.32
39891;BME280;25564;53.312;9.790;2023-02-26T08:57:05;101628.16;;;1.61;97.28
39891;BME280;25564;53.312;9.790;2023-02-26T08:59:36;101633.56;;;1.67;97.11
39891;BME280;25564;53.312;9.790;2023-02-26T09:02:11;101644.25;;;1.73;97.32
39891;BME280;25564;53.312;9.790;2023-02-26T09:04:43;101644.25;;;1.73;96.43
39891;BME280;25564;53.312;9.790;2023-02-26T09:07:14;101655.03;;;1.82;96.09
39891;BME280;25564;53.312;9.790;2023-02-26T09:09:45;101661.19;;;1.84;95.43
39891;BME280;25564;53.312;9.790;2023-02-26T09:12:17;101667.41;;;1.88;96.46
39891;BME280;25564;53.312;9.790;2023-02-26T09:14:48;101673.84;;;1.98;96.66
39891;BME280;25564;53.312;9.790;2023-02-26T09:17:19;101682.00;;;2.07;96.28
39891;BME280;25564;53.312;9.790;2023-02-26T09:19:51;101674.19;;;2.10;96.67
39891;BME280;25564;53.312;9.790;2023-02-26T09:22:22;101669.78;;;2.07;95.80
39891;BME280;25564;53.312;9.790;2023-02-26T09:24:53;101664.63;;;2.10;95.80
39891;BME280;25564;53.312;9.790;2023-02-26T09:27:25;101682.56;;;2.25;96.28
39891;BME280;25564;53.312;9.790;2023-02-26T09:29:56;101705.53;;;2.34;95.56
39891;BME280;25564;53.312;9.790;2023-02-26T09:32:28;101709.16;;;2.39;94.92
39891;BME280;25564;53.312;9.790;2023-02-26T09:34:59;101698.88;;;2.45;95.17
39891;BME280;25564;53.312;9.790;2023-02-26T09:37:31;101703.38;;;2.49;95.40
39891;BME280;25564;53.312;9.790;2023-02-26T09:40:03;101700.94;;;2.55;95.72
39891;BME280;25564;53.312;9.790;2023-02-26T09:45:38;101703.91;;;2.66;95.05
39891;BME280;25564;53.312;9.790;2023-02-26T09:48:15;101690.66;;;2.61;95.16
39891;BME280;25564;53.312;9.790;2023-02-26T09:50:51;101706.28;;;2.86;95.04
39891;BME280;25564;53.312;9.790;2023-02-26T09:53:31;101703.88;;;2.94;94.23
39891;BME280;25564;53.312;9.790;2023-02-26T09:56:06;101719.94;;;3.05;94.99
39891;BME280;25564;53.312;9.790;2023-02-26T09:58:42;101693.56;;;3.00;94.62
39891;BME280;25564;53.312;9.790;2023-02-26T10:02:17;101715.31;;;3.27;93.79
39891;BME280;25564;53.312;9.790;2023-02-26T10:08:03;101712.63;;;3.26;93.92
39891;BME280;25564;53.312;9.790;2023-02-26T10:11:10;101730.41;;;3.36;93.37
39891;BME280;25564;53.312;9.790;2023-02-26T10:13:48;101720.03;;;3.41;92.89
39891;BME280;25564;53.312;9.790;2023-02-26T10:16:34;101731.72;;;3.52;92.25
39891;BME280;25564;53.312;9.790;2023-02-26T10:19:17;101737.09;;;3.56;92.80
39891;BME280;25564;53.312;9.790;2023-02-26T10:24:42;101726.47;;;3.52;92.00
39891;BME280;25564;53.312;9.790;2023-02-26T10:27:19;101738.16;;;3.63;91.72
39891;BME280;25564;53.312;9.790;2023-02-26T10:30:09;101749.06;;;3.78;92.25
39891;BME280;25564;53.312;9.790;2023-02-26T10:33:00;101750.41;;;3.96;91.58
39891;BME280;25564;53.312;9.790;2023-02-26T10:35:41;101743.53;;;4.01;90.97
39891;BME280;25564;53.312;9.790;2023-02-26T10:38:17;101747.16;;;4.06;90.60
39891;BME280;25564;53.312;9.790;2023-02-26T10:40:58;101751.69;;;4.11;90.48
39891;BME280;25564;53.312;9.790;2023-02-26T10:43:42;101760.66;;;4.21;90.44
39891;BME280;25564;53.312;9.790;2023-02-26T10:46:21;101747.97;;;4.39;91.16
39891;BME280;25564;53.312;9.790;2023-02-26T10:49:12;101738.59;;;4.50;90.95
39891;BME280;25564;53.312;9.790;2023-02-26T10:51:48;101768.09;;;4.75;90.61
39891;BME280;25564;53.312;9.790;2023-02-26T10:57:21;101770.34;;;4.97;89.61
39891;BME280;25564;53.312;9.790;2023-02-26T10:59:54;101774.34;;;5.19;90.67
39891;BME280;25564;53.312;9.790;2023-02-26T11:02:34;101768.59;;;5.40;90.58
39891;BME280;25564;53.312;9.790;2023-02-26T11:05:16;101752.69;;;5.34;90.29
39891;BME280;25564;53.312;9.790;2023-02-26T11:07:51;101772.06;;;5.37;89.58
39891;BME280;25564;53.312;9.790;2023-02-26T11:10:38;101767.44;;;5.25;90.22
39891;BME280;25564;53.312;9.790;2023-02-26T11:13:10;101783.84;;;5.12;90.15
39891;BME280;25564;53.312;9.790;2023-02-26T11:15:46;101778.00;;;4.86;89.52
39891;BME280;25564;53.312;9.790;2023-02-26T11:18:40;101780.84;;;4.58;89.79
39891;BME280;25564;53.312;9.790;2023-02-26T11:21:20;101770.03;;;4.46;90.43
39891;BME280;25564;53.312;9.790;2023-02-26T11:23:58;101774.00;;;4.30;89.57
39891;BME280;25564;53.312;9.790;2023-02-26T11:26:35;101772.91;;;4.20;89.50
39891;BME280;25564;53.312;9.790;2023-02-26T11:29:13;101792.13;;;4.19;91.04
39891;BME280;25564;53.312;9.790;2023-02-26T11:31:54;101753.31;;;4.06;90.64
39891;BME280;25564;53.312;9.790;2023-02-26T11:34:28;101775.63;;;4.25;90.29
39891;BME280;25564;53.312;9.790;2023-02-26T11:37:00;101759.03;;;4.26;91.53
39891;BME280;25564;53.312;9.790;2023-02-26T11:39:34;101775.44;;;4.52;91.57
39891;BME280;25564;53.312;9.790;2023-02-26T11:42:06;101784.22;;;4.90;91.98
39891;BME280;25564;53.312;9.790;2023-02-26T11:44:43;101755.81;;;5.14;92.87
39891;BME280;25564;53.312;9.790;2023-02-26T11:47:23;101777.47;;;5.45;92.29
39891;BME280;25564;53.312;9.790;2023-02-26T11:50:00;101783.06;;;5.60;92.73
39891;BME280;25564;53.312;9.790;2023-02-26T11:52:39;101787.63;;;5.70;92.64
39891;BME280;25564;53.312;9.790;2023-02-26T11:55:27;101783.72;;;5.50;91.61
39891;BME280;25564;53.312;9.790;2023-02-26T11:57:58;101778.41;;;5.47;92.19
39891;BME280;25564;53.312;9.790;2023-02-26T12:00:34;101773.00;;;5.41;92.77
39891;BME280;25564;53.312;9.790;2023-02-26T12:03:07;101778.16;;;5.35;92.26
39891;BME280;25564;53.312;9.790;2023-02-26T12:05:45;101760.09;;;5.09;92.17
39891;BME280;25564;53.312;9.790;2023-02-26T12:08:34;101780.13;;;5.03;91.94
39891;BME280;25564;53.312;9.790;2023-02-26T12:17:48;101775.75;;;5.03;91.39
39891;BME280;25564;53.312;9.790;2023-02-26T12:28:30;101792.88;;;5.26;91.02
39891;BME280;25564;53.312;9.790;2023-02-26T12:37:36;101773.31;;;4.73;90.71
39891;BME280;25564;53.312;9.790;2023-02-26T12:40:48;101804.19;;;4.82;92.13
39891;BME280;25564;53.312;9.790;2023-02-26T12:43:43;101809.88;;;5.00;91.96
39891;BME280;25564;53.312;9.790;2023-02-26T12:46:34;101801.78;;;5.33;91.03
39891;BME280;25564;53.312;9.790;2023-02-26T12:49:34;101803.03;;;5.50;91.57
39891;BME280;25564;53.312;9.790;2023-02-26T12:52:32;101805.44;;;5.40;91.11
39891;BME280;25564;53.312;9.790;2023-02-26T12:55:21;101808.53;;;5.61;91.81
39891;BME280;25564;53.312;9.790;2023-02-26T12:58:18;101805.03;;;5.62;92.16
39891;BME280;25564;53.312;9.790;2023-02-26T13:04:09;101777.22;;;5.33;93.48
39891;BME280;25564;53.312;9.790;2023-02-26T13:06:57;101802.06;;;5.45;93.89
39891;BME280;25564;53.312;9.790;2023-02-26T13:09:52;101791.00;;;5.63;94.32
39891;BME280;25564;53.312;9.790;2023-02-26T13:12:38;101785.09;;;5.75;96.06
39891;BME280;25564;53.312;9.790;2023-02-26T13:17:54;101789.97;;;5.99;96.33
39891;BME280;25564;53.312;9.790;2023-02-26T13:20:27;101777.72;;;6.01;96.53
39891;BME280;25564;53.312;9.790;2023-02-26T13:23:09;101802.53;;;6.13;95.84
39891;BME280;25564;53.312;9.790;2023-02-26T13:25:45;101791.09;;;6.13;96.46
39891;BME280;25564;53.312;9.790;2023-02-26T13:31:16;101798.22;;;6.17;97.09
39891;BME280;25564;53.312;9.790;2023-02-26T13:33:50;101797.25;;;6.12;96.87
39891;BME280;25564;53.312;9.790;2023-02-26T13:36:24;101774.16;;;5.99;96.87
39891;BME280;25564;53.312;9.790;2023-02-26T13:41:57;101802.91;;;5.88;96.23
39891;BME280;25564;53.312;9.790;2023-02-26T13:45:00;101794.91;;;5.83;96.49
39891;BME280;25564;53.312;9.790;2023-02-26T13:56:11;101793.88;;;5.75;95.54
39891;BME280;25564;53.312;9.790;2023-02-26T13:58:48;101784.78;;;5.59;93.91
39891;BME280;25564;53.312;9.790;2023-02-26T14:01:32;101806.00;;;5.67;94.98
39891;BME280;25564;53.312;9.790;2023-02-26T14:06:46;101791.78;;;5.57;94.94
39891;BME280;25564;53.312;9.790;2023-02-26T14:20:23;101793.53;;;6.01;95.16
39891;BME280;25564;53.312;9.790;2023-02-26T14:25:44;101792.00;;;5.68;94.65
39891;BME280;25564;53.312;9.790;2023-02-26T14:30:57;101784.22;;;5.74;94.51
39891;BME280;25564;53.312;9.790;2023-02-26T14:33:47;101775.28;;;5.66;93.98
39891;BME280;25564;53.312;9.790;2023-02-26T14:39:15;101788.81;;;5.86;93.35
39891;BME280;25564;53.312;9.790;2023-02-26T14:41:59;101786.97;;;5.80;92.97
39891;BME280;25564;53.312;9.790;2023-02-26T14:44:41;101786.53;;;5.59;91.71
39891;BME280;25564;53.312;9.790;2023-02-26T14:47:14;101789.56;;;5.35;92.25
39891;BME280;25564;53.312;9.790;2023-02-26T14:49:47;101789.22;;;5.18;93.65
39891;BME280;25564;53.312;9.790;2023-02-26T14:55:50;101795.44;;;4.83;92.82
39891;BME280;25564;53.312;9.790;2023-02-26T14:58:34;101796.00;;;4.70;93.72
39891;BME280;25564;53.312;9.790;2023-02-26T15:04:14;101781.47;;;4.85;93.43
39891;BME280;25564;53.312;9.790;2023-02-26T15:07:02;101780.91;;;4.99;93.01
39891;BME280;25564;53.312;9.790;2023-02-26T15:10:02;101786.63;;;5.21;92.30
39891;BME280;25564;53.312;9.790;2023-02-26T15:12:52;101793.81;;;5.29;92.44
39891;BME280;25564;53.312;9.790;2023-02-26T15:15:44;101793.03;;;5.34;92.22
39891;BME280;25564;53.312;9.790;2023-02-26T15:18:37;101793.94;;;5.35;92.86
39891;BME280;25564;53.312;9.790;2023-02-26T15:21:42;101799.00;;;5.25;92.58
39891;BME280;25564;53.312;9.790;2023-02-26T15:24:17;101817.28;;;5.18;93.23
39891;BME280;25564;53.312;9.790;2023-02-26T15:26:56;101800.34;;;5.05;92.03
39891;BME280;25564;53.312;9.790;2023-02-26T15:29:32;101802.66;;;4.91;92.40
39891;BME280;25564;53.312;9.790;2023-02-26T15:32:26;101807.53;;;4.75;92.38
39891;BME280;25564;53.312;9.790;2023-02-26T15:35:02;101804.75;;;4.69;92.63
39891;BME280;25564;53.312;9.790;2023-02-26T15:37:34;101808.00;;;4.58;92.31